createdAt,value
2023-05-05T00:00:09.671Z,1196.00
2023-05-05T00:01:09.622Z,1183.00
2023-05-05T00:02:09.707Z,1201.00
2023-05-05T00:03:09.809Z,1205.00
2023-05-05T00:04:09.832Z,1189.00
2023-05-05T00:05:09.830Z,1201.00
2023-05-05T00:06:09.862Z,1203.00
2023-05-05T00:07:09.917Z,1205.00
2023-05-05T00:08:09.937Z,1196.00
2023-05-05T00:09:10.011Z,1184.00
2023-05-05T00:10:10.218Z,1201.00
2023-05-05T00:11:10.108Z,1202.00
2023-05-05T00:12:10.181Z,1200.00
2023-05-05T00:13:10.419Z,1194.00
2023-05-05T00:14:10.262Z,1197.00
2023-05-05T00:15:10.319Z,1202.00
2023-05-05T00:16:10.350Z,1194.00
2023-05-05T00:17:10.673Z,1190.00
2023-05-05T00:18:10.444Z,1194.00
2023-05-05T00:19:10.552Z,1181.00
2023-05-05T00:20:10.626Z,1197.00
2023-05-05T00:21:10.621Z,1195.00
2023-05-05T00:22:10.654Z,1193.00
2023-05-05T00:23:10.713Z,1180.00
2023-05-05T00:24:10.718Z,1189.00
2023-05-05T00:25:10.768Z,1205.00
2023-05-05T00:26:10.873Z,1188.00
2023-05-05T00:27:10.847Z,1192.00
2023-05-05T00:28:10.886Z,1184.00
2023-05-05T00:29:10.943Z,1190.00
2023-05-05T00:30:11.015Z,1197.00
2023-05-05T00:31:11.078Z,1191.00
2023-05-05T00:32:11.100Z,1186.00
2023-05-05T00:33:11.150Z,1197.00
2023-05-05T00:34:11.191Z,1180.00
2023-05-05T00:35:11.203Z,1189.00
2023-05-05T00:36:11.230Z,1189.00
2023-05-05T00:37:11.304Z,1189.00
2023-05-05T00:38:11.372Z,1188.00
2023-05-05T00:39:11.380Z,1175.00
2023-05-05T00:40:11.413Z,1184.00
2023-05-05T00:41:11.488Z,1177.00
2023-05-05T00:42:11.547Z,1169.00
2023-05-05T00:43:11.621Z,1183.00
2023-05-05T00:44:11.702Z,1192.00
2023-05-05T00:45:11.715Z,1178.00
2023-05-05T00:46:11.820Z,1183.00
2023-05-05T00:47:11.803Z,1178.00
2023-05-05T00:48:11.830Z,1192.00
2023-05-05T00:49:11.884Z,1172.00
2023-05-05T00:50:11.930Z,1171.00
2023-05-05T00:51:11.915Z,1174.00
2023-05-05T00:52:11.964Z,1174.00
2023-05-05T00:53:12.007Z,1183.00
2023-05-05T00:54:12.029Z,1174.00
2023-05-05T00:55:12.137Z,1175.00
2023-05-05T00:56:12.154Z,1168.00
2023-05-05T00:57:12.228Z,1170.00
2023-05-05T00:58:12.253Z,1162.00
2023-05-05T00:59:12.282Z,1176.00
2023-05-05T01:00:12.320Z,1166.00
2023-05-05T01:01:12.389Z,1173.00
2023-05-05T01:02:12.412Z,1158.00
2023-05-05T01:03:12.491Z,1164.00
2023-05-05T01:04:12.466Z,1163.00
2023-05-05T01:05:12.534Z,1173.00
2023-05-05T01:06:12.593Z,1166.00
2023-05-05T01:07:12.678Z,1183.00
2023-05-05T01:08:12.745Z,1156.00
2023-05-05T01:09:12.823Z,1166.00
2023-05-05T01:10:20.227Z,1167.00
2023-05-05T01:11:13.929Z,1168.00
2023-05-05T01:12:12.864Z,1170.00
2023-05-05T01:13:13.008Z,1175.00
2023-05-05T01:14:12.900Z,1157.00
2023-05-05T01:15:12.869Z,1170.00
2023-05-05T01:16:12.918Z,1169.00
2023-05-05T01:17:12.926Z,1158.00
2023-05-05T01:18:12.864Z,1167.00
2023-05-05T01:19:12.854Z,1176.00
2023-05-05T01:20:12.820Z,1160.00
2023-05-05T01:21:12.830Z,1169.00
2023-05-05T01:22:12.912Z,1168.00
2023-05-05T01:23:12.918Z,1138.00
2023-05-05T01:24:12.937Z,1165.00
2023-05-05T01:25:13.010Z,1155.00
2023-05-05T01:26:13.083Z,1148.00
2023-05-05T01:27:13.192Z,1152.00
2023-05-05T01:28:13.222Z,1164.00
2023-05-05T01:29:13.260Z,1164.00
2023-05-05T01:30:13.357Z,1166.00
2023-05-05T01:31:13.366Z,1173.00
2023-05-05T01:32:13.415Z,1165.00
2023-05-05T01:33:13.441Z,1157.00
2023-05-05T01:34:13.478Z,1162.00
2023-05-05T01:35:13.525Z,1151.00
2023-05-05T01:36:13.552Z,1170.00
2023-05-05T01:37:13.627Z,1158.00
2023-05-05T01:38:13.626Z,1156.00
2023-05-05T01:39:13.697Z,1153.00
2023-05-05T01:40:13.785Z,1159.00
2023-05-05T01:41:13.859Z,1155.00
2023-05-05T01:42:13.934Z,1153.00
2023-05-05T01:43:13.958Z,1159.00
2023-05-05T01:44:13.975Z,1153.00
2023-05-05T01:45:14.021Z,1144.00
2023-05-05T01:46:14.106Z,1149.00
2023-05-05T01:47:14.070Z,1157.00
2023-05-05T01:48:14.102Z,1148.00
2023-05-05T01:49:14.116Z,1151.00
2023-05-05T01:50:14.134Z,1149.00
2023-05-05T01:51:14.205Z,1148.00
2023-05-05T01:52:14.282Z,1154.00
2023-05-05T01:53:14.291Z,1154.00
2023-05-05T01:54:14.335Z,1139.00
2023-05-05T01:55:14.345Z,1148.00
2023-05-05T01:56:14.328Z,1143.00
2023-05-05T01:57:14.332Z,1147.00
2023-05-05T01:58:14.352Z,1145.00
2023-05-05T01:59:14.434Z,1154.00
2023-05-05T02:00:14.425Z,1154.00
2023-05-05T02:01:14.461Z,1142.00
2023-05-05T02:02:14.460Z,1145.00
2023-05-05T02:03:14.586Z,1142.00
2023-05-05T02:04:14.466Z,1131.00
2023-05-05T02:05:14.486Z,1154.00
2023-05-05T02:06:14.554Z,1149.00
2023-05-05T02:07:14.649Z,1133.00
2023-05-05T02:08:14.779Z,1138.00
2023-05-05T02:09:14.765Z,1128.00
2023-05-05T02:10:14.754Z,1124.00
2023-05-05T02:11:14.789Z,1133.00
2023-05-05T02:12:14.785Z,1144.00
2023-05-05T02:13:15.362Z,1135.00
2023-05-05T02:14:14.790Z,1137.00
2023-05-05T02:15:14.835Z,1114.00
2023-05-05T02:16:14.917Z,1142.00
2023-05-05T02:17:14.801Z,1130.00
2023-05-05T02:18:14.883Z,1124.00
2023-05-05T02:19:14.846Z,1144.00
2023-05-05T02:20:14.954Z,1124.00
2023-05-05T02:21:15.024Z,1133.00
2023-05-05T02:22:15.151Z,1130.00
2023-05-05T02:23:15.108Z,1130.00
2023-05-05T02:24:15.152Z,1122.00
2023-05-05T02:25:15.092Z,1106.00
2023-05-05T02:26:15.132Z,1120.00
2023-05-05T02:27:15.093Z,1126.00
2023-05-05T02:28:15.161Z,1138.00
2023-05-05T02:29:15.181Z,1122.00
2023-05-05T02:30:15.152Z,1141.00
2023-05-05T02:31:15.163Z,1119.00
2023-05-05T02:32:15.134Z,1118.00
2023-05-05T02:33:15.137Z,1118.00
2023-05-05T02:34:15.180Z,1112.00
2023-05-05T02:35:15.148Z,1126.00
2023-05-05T02:36:15.152Z,1125.00
2023-05-05T02:37:15.199Z,1120.00
2023-05-05T02:38:15.160Z,1122.00
2023-05-05T02:39:15.212Z,1111.00
2023-05-05T02:40:15.209Z,1124.00
2023-05-05T02:41:15.219Z,1122.00
2023-05-05T02:42:15.220Z,1130.00
2023-05-05T02:43:15.253Z,1109.00
2023-05-05T02:44:15.326Z,1111.00
2023-05-05T02:45:15.241Z,1118.00
2023-05-05T02:46:15.809Z,1124.00
2023-05-05T02:47:15.233Z,1114.00
2023-05-05T02:48:15.231Z,1118.00
2023-05-05T02:49:15.212Z,1108.00
2023-05-05T02:50:15.224Z,1111.00
2023-05-05T02:51:15.238Z,1117.00
2023-05-05T02:52:15.310Z,1124.00
2023-05-05T02:53:15.688Z,1108.00
2023-05-05T02:54:15.433Z,1123.00
2023-05-05T02:55:15.493Z,1126.00
2023-05-05T02:56:15.548Z,1113.00
2023-05-05T02:57:15.629Z,1119.00
2023-05-05T02:58:15.660Z,1099.00
2023-05-05T02:59:16.416Z,1112.00
2023-05-05T03:00:15.717Z,1113.00
2023-05-05T03:01:15.718Z,1093.00
2023-05-05T03:02:15.704Z,1109.00
2023-05-05T03:03:15.775Z,1116.00
2023-05-05T03:04:15.815Z,1102.00
2023-05-05T03:05:15.767Z,1096.00
2023-05-05T03:06:15.845Z,1097.00
2023-05-05T03:07:15.959Z,1113.00
2023-05-05T03:08:16.021Z,1116.00
2023-05-05T03:09:16.117Z,1106.00
2023-05-05T03:10:16.207Z,1111.00
2023-05-05T03:11:16.277Z,1109.00
2023-05-05T03:12:16.354Z,1105.00
2023-05-05T03:13:16.372Z,1109.00
2023-05-05T03:14:16.396Z,1108.00
2023-05-05T03:15:16.355Z,1118.00
2023-05-05T03:16:16.374Z,1093.00
2023-05-05T03:17:16.385Z,1110.00
2023-05-05T03:18:16.441Z,1109.00
2023-05-05T03:19:16.544Z,1106.00
2023-05-05T03:20:16.651Z,1109.00
2023-05-05T03:21:16.673Z,1109.00
2023-05-05T03:22:16.754Z,1104.00
2023-05-05T03:23:16.747Z,1092.00
2023-05-05T03:24:16.758Z,1099.00
2023-05-05T03:25:16.747Z,1106.00
2023-05-05T03:26:16.762Z,1095.00
2023-05-05T03:27:16.793Z,1085.00
2023-05-05T03:28:16.789Z,1105.00
2023-05-05T03:29:16.903Z,1104.00
2023-05-05T03:30:16.895Z,1082.00
2023-05-05T03:31:17.258Z,1106.00
2023-05-05T03:32:16.963Z,1095.00
2023-05-05T03:33:16.950Z,1104.00
2023-05-05T03:34:16.963Z,1103.00
2023-05-05T03:35:16.982Z,1098.00
2023-05-05T03:36:17.005Z,1101.00
2023-05-05T03:37:16.976Z,1110.00
2023-05-05T03:38:16.984Z,1088.00
2023-05-05T03:39:17.077Z,1090.00
2023-05-05T03:40:17.193Z,1097.00
2023-05-05T03:41:17.272Z,1083.00
2023-05-05T03:42:17.315Z,1100.00
2023-05-05T03:43:17.303Z,1077.00
2023-05-05T03:44:17.277Z,1089.00
2023-05-05T03:45:17.320Z,1094.00
2023-05-05T03:46:17.468Z,1087.00
2023-05-05T03:47:17.415Z,1089.00
2023-05-05T03:48:17.482Z,1097.00
2023-05-05T03:49:17.461Z,1091.00
2023-05-05T03:50:17.492Z,1089.00
2023-05-05T03:51:17.469Z,1085.00
2023-05-05T03:52:17.455Z,1091.00
2023-05-05T03:53:17.497Z,1084.00
2023-05-05T03:54:17.509Z,1082.00
2023-05-05T03:55:17.513Z,1076.00
2023-05-05T03:56:17.490Z,1079.00
2023-05-05T03:57:17.499Z,1074.00
2023-05-05T03:58:17.477Z,1073.00
2023-05-05T03:59:17.498Z,1076.00
2023-05-05T04:00:17.611Z,1080.00
2023-05-05T04:01:17.752Z,1086.00
2023-05-05T04:02:18.847Z,1079.00
2023-05-05T04:03:17.968Z,1082.00
2023-05-05T04:04:17.947Z,1071.00
2023-05-05T04:05:17.802Z,1070.00
2023-05-05T04:06:17.869Z,1079.00
2023-05-05T04:07:17.827Z,1074.00
2023-05-05T04:08:17.857Z,1076.00
2023-05-05T04:09:17.785Z,1063.00
2023-05-05T04:10:17.944Z,1081.00
2023-05-05T04:11:17.898Z,1074.00
2023-05-05T04:12:17.897Z,1061.00
2023-05-05T04:13:17.904Z,1068.00
2023-05-05T04:14:17.869Z,1068.00
2023-05-05T04:15:17.911Z,1069.00
2023-05-05T04:16:18.043Z,1067.00
2023-05-05T04:17:18.042Z,1065.00
2023-05-05T04:18:18.287Z,1088.00
2023-05-05T04:19:18.218Z,1070.00
2023-05-05T04:20:18.250Z,1066.00
2023-05-05T04:21:18.226Z,1072.00
2023-05-05T04:22:18.202Z,1066.00
2023-05-05T04:23:18.205Z,1074.00
2023-05-05T04:24:18.227Z,1067.00
2023-05-05T04:25:18.294Z,1075.00
2023-05-05T04:26:18.377Z,1061.00
2023-05-05T04:27:18.484Z,1074.00
2023-05-05T04:28:21.024Z,1071.00
2023-05-05T04:29:18.574Z,1083.00
2023-05-05T04:30:18.566Z,1058.00
2023-05-05T04:31:18.592Z,1069.00
2023-05-05T04:32:18.536Z,1060.00
2023-05-05T04:33:18.530Z,1059.00
2023-05-05T04:34:18.522Z,1062.00
2023-05-05T04:35:18.542Z,1066.00
2023-05-05T04:36:18.496Z,1066.00
2023-05-05T04:37:18.495Z,1062.00
2023-05-05T04:38:18.553Z,1063.00
2023-05-05T04:39:18.550Z,1064.00
2023-05-05T04:40:18.525Z,1055.00
2023-05-05T04:41:18.483Z,1059.00
2023-05-05T04:42:18.501Z,1052.00
2023-05-05T04:43:18.468Z,1058.00
2023-05-05T04:44:18.460Z,1048.00
2023-05-05T04:45:18.460Z,1054.00
2023-05-05T04:46:18.455Z,1056.00
2023-05-05T04:47:18.442Z,1061.00
2023-05-05T04:48:18.403Z,1049.00
2023-05-05T04:49:18.440Z,1059.00
2023-05-05T04:50:18.412Z,1059.00
2023-05-05T04:51:18.429Z,1052.00
2023-05-05T04:52:18.379Z,1039.00
2023-05-05T04:53:18.394Z,1054.00
2023-05-05T04:54:18.419Z,1037.00
2023-05-05T04:55:18.390Z,1050.00
2023-05-05T04:56:18.469Z,1058.00
2023-05-05T04:57:18.329Z,1037.00
2023-05-05T04:58:18.354Z,1045.00
2023-05-05T04:59:18.365Z,1051.00
2023-05-05T05:00:18.347Z,1039.00
2023-05-05T05:01:18.339Z,1049.00
2023-05-05T05:02:18.348Z,1044.00
2023-05-05T05:03:18.406Z,1029.00
2023-05-05T05:04:18.315Z,1042.00
2023-05-05T05:05:18.357Z,1049.00
2023-05-05T05:06:18.303Z,1034.00
2023-05-05T05:07:19.250Z,1039.00
2023-05-05T05:08:18.323Z,1040.00
2023-05-05T05:09:18.278Z,1047.00
2023-05-05T05:10:18.313Z,1043.00
2023-05-05T05:11:18.279Z,1028.00
2023-05-05T05:12:18.265Z,1030.00
2023-05-05T05:13:18.467Z,1036.00
2023-05-05T05:14:18.227Z,1031.00
2023-05-05T05:15:18.254Z,1038.00
2023-05-05T05:16:18.430Z,1020.00
2023-05-05T05:17:18.226Z,1027.00
2023-05-05T05:18:18.256Z,1029.00
2023-05-05T05:19:18.217Z,1031.00
2023-05-05T05:20:18.240Z,1034.00
2023-05-05T05:21:18.205Z,1034.00
2023-05-05T05:22:18.308Z,1021.00
2023-05-05T05:23:18.192Z,1035.00
2023-05-05T05:24:18.200Z,1025.00
2023-05-05T05:25:18.233Z,1023.00
2023-05-05T05:26:18.187Z,1005.00
2023-05-05T05:27:18.239Z,1028.00
2023-05-05T05:28:18.204Z,1024.00
2023-05-05T05:29:18.162Z,1026.00
2023-05-05T05:30:18.122Z,1027.00
2023-05-05T05:31:18.144Z,1016.00
2023-05-05T05:32:18.210Z,1019.00
2023-05-05T05:33:18.118Z,1030.00
2023-05-05T05:34:18.118Z,1034.00
2023-05-05T05:35:18.230Z,1054.00
2023-05-05T05:36:18.120Z,1051.00
2023-05-05T05:37:18.185Z,1071.00
2023-05-05T05:38:18.081Z,1100.00
2023-05-05T05:39:18.120Z,1110.00
2023-05-05T05:40:18.070Z,1144.00
2023-05-05T05:41:18.072Z,1200.00
2023-05-05T05:42:18.063Z,1233.00
2023-05-05T05:43:18.759Z,1266.00
2023-05-05T05:44:18.122Z,1308.00
2023-05-05T05:45:18.046Z,1382.00
2023-05-05T05:46:18.099Z,1429.00
2023-05-05T05:47:18.029Z,1453.00
2023-05-05T05:48:18.039Z,1485.00
2023-05-05T05:49:18.015Z,1526.00
2023-05-05T05:50:18.095Z,1537.00
2023-05-05T05:51:18.126Z,1519.00
2023-05-05T05:52:18.179Z,1535.00
2023-05-05T05:53:18.200Z,1529.00
2023-05-05T05:54:18.256Z,1542.00
2023-05-05T05:55:18.324Z,1536.00
2023-05-05T05:56:18.365Z,1539.00
2023-05-05T05:57:18.385Z,1546.00
2023-05-05T05:58:18.570Z,1531.00
2023-05-05T05:59:18.452Z,1532.00
2023-05-05T06:00:18.504Z,1543.00
2023-05-05T06:01:18.557Z,1543.00
2023-05-05T06:02:18.662Z,1543.00
2023-05-05T06:03:18.946Z,1542.00
2023-05-05T06:04:18.772Z,1556.00
2023-05-05T06:05:18.833Z,1565.00
2023-05-05T06:06:19.291Z,1569.00
2023-05-05T06:07:18.892Z,1559.00
2023-05-05T06:08:19.355Z,1555.00
2023-05-05T06:09:18.950Z,1564.00
2023-05-05T06:10:27.907Z,1568.00
2023-05-05T06:11:20.006Z,1569.00
2023-05-05T06:12:19.001Z,1570.00
2023-05-05T06:13:19.020Z,1573.00
2023-05-05T06:14:20.116Z,1571.00
2023-05-05T06:15:18.990Z,1579.00
2023-05-05T06:16:18.990Z,1592.00
2023-05-05T06:17:18.988Z,1582.00
2023-05-05T06:18:19.256Z,1574.00
2023-05-05T06:19:18.966Z,1565.00
2023-05-05T06:20:19.115Z,1585.00
2023-05-05T06:21:19.093Z,1567.00
2023-05-05T06:22:19.136Z,1564.00
2023-05-05T06:23:19.208Z,1558.00
2023-05-05T06:24:19.234Z,1568.00
2023-05-05T06:25:19.348Z,1573.00
2023-05-05T06:26:19.364Z,1570.00
2023-05-05T06:27:19.384Z,1570.00
2023-05-05T06:28:19.787Z,1562.00
2023-05-05T06:29:19.564Z,1569.00
2023-05-05T06:30:19.567Z,1571.00
2023-05-05T06:31:19.604Z,1555.00
2023-05-05T06:32:19.659Z,1553.00
2023-05-05T06:33:19.768Z,1554.00
2023-05-05T06:34:19.736Z,1570.00
2023-05-05T06:35:19.798Z,1553.00
2023-05-05T06:36:19.872Z,1539.00
2023-05-05T06:37:19.914Z,1547.00
2023-05-05T06:38:20.318Z,1553.00
2023-05-05T06:39:20.011Z,1556.00
2023-05-05T06:40:20.040Z,1551.00
2023-05-05T06:41:20.104Z,1555.00
2023-05-05T06:42:20.128Z,1552.00
2023-05-05T06:43:20.202Z,1543.00
2023-05-05T06:44:20.270Z,1550.00
2023-05-05T06:45:20.294Z,1542.00
2023-05-05T06:46:20.370Z,1546.00
2023-05-05T06:47:20.786Z,1539.00
2023-05-05T06:48:20.448Z,1532.00
2023-05-05T06:49:20.542Z,1532.00
2023-05-05T06:50:20.642Z,1543.00
2023-05-05T06:51:20.625Z,1538.00
2023-05-05T06:52:20.758Z,1525.00
2023-05-05T06:53:20.750Z,1525.00
2023-05-05T06:54:20.809Z,1531.00
2023-05-05T06:55:20.923Z,1529.00
2023-05-05T06:56:20.922Z,1516.00
2023-05-05T06:57:21.027Z,1520.00
2023-05-05T06:58:21.081Z,1520.00
2023-05-05T06:59:21.124Z,1512.00
2023-05-05T07:00:21.134Z,1531.00
2023-05-05T07:01:21.286Z,1508.00
2023-05-05T07:02:21.276Z,1509.00
2023-05-05T07:03:21.452Z,1510.00
2023-05-05T07:04:21.391Z,1503.00
2023-05-05T07:05:21.435Z,1509.00
2023-05-05T07:06:21.541Z,1503.00
2023-05-05T07:07:21.534Z,1495.00
2023-05-05T07:08:21.647Z,1510.00
2023-05-05T07:09:21.669Z,1500.00
2023-05-05T07:10:21.711Z,1499.00
2023-05-05T07:11:21.767Z,1504.00
2023-05-05T07:12:21.849Z,1490.00
2023-05-05T07:13:21.895Z,1481.00
2023-05-05T07:14:24.234Z,1494.00
2023-05-05T07:15:28.861Z,1496.00
2023-05-05T07:16:23.216Z,1497.00
2023-05-05T07:17:22.199Z,1487.00
2023-05-05T07:18:22.141Z,1480.00
2023-05-05T07:19:22.181Z,1493.00
2023-05-05T07:20:22.134Z,1488.00
2023-05-05T07:21:22.105Z,1475.00
2023-05-05T07:22:22.173Z,1476.00
2023-05-05T07:23:22.126Z,1468.00
2023-05-05T07:24:22.150Z,1476.00
2023-05-05T07:25:22.165Z,1473.00
2023-05-05T07:26:22.225Z,1461.00
2023-05-05T07:27:22.329Z,1462.00
2023-05-05T07:28:22.387Z,1478.00
2023-05-05T07:29:22.911Z,1473.00
2023-05-05T07:30:22.926Z,1468.00
2023-05-05T07:31:22.638Z,1465.00
2023-05-05T07:32:22.737Z,1492.00
2023-05-05T07:33:22.617Z,1518.00
2023-05-05T07:34:22.813Z,1534.00
2023-05-05T07:35:22.739Z,1536.00
2023-05-05T07:36:22.749Z,1570.00
2023-05-05T07:37:22.813Z,1588.00
2023-05-05T07:38:22.872Z,1614.00
2023-05-05T07:39:22.873Z,1680.00
2023-05-05T07:40:22.990Z,1697.00
2023-05-05T07:41:22.933Z,1732.00
2023-05-05T07:42:23.184Z,1771.00
2023-05-05T07:43:23.025Z,1802.00
2023-05-05T07:44:23.193Z,1831.00
2023-05-05T07:45:23.050Z,1869.00
2023-05-05T07:46:23.223Z,1893.00
2023-05-05T07:47:23.107Z,1938.00
2023-05-05T07:48:23.114Z,1970.00
2023-05-05T07:49:23.188Z,1992.00
2023-05-05T07:50:23.425Z,2018.00
2023-05-05T07:51:23.176Z,2049.00
2023-05-05T07:52:33.542Z,2096.00
2023-05-05T07:53:24.133Z,2097.00
2023-05-05T07:54:23.460Z,2105.00
2023-05-05T07:55:23.152Z,2122.00
2023-05-05T07:56:23.113Z,2166.00
2023-05-05T07:57:23.177Z,2225.00
2023-05-05T07:58:23.148Z,2245.00
2023-05-05T07:59:23.105Z,2265.00
2023-05-05T08:00:23.077Z,2302.00
2023-05-05T08:01:23.100Z,2340.00
2023-05-05T08:02:23.254Z,2381.00
2023-05-05T08:03:23.254Z,2385.00
2023-05-05T08:04:23.146Z,2407.00
2023-05-05T08:05:23.084Z,2423.00
2023-05-05T08:06:23.094Z,2463.00
2023-05-05T08:07:23.126Z,2495.00
2023-05-05T08:08:23.023Z,2517.00
2023-05-05T08:09:23.073Z,2544.00
2023-05-05T08:10:23.102Z,2567.00
2023-05-05T08:11:23.114Z,2587.00
2023-05-05T08:12:23.036Z,2635.00
2023-05-05T08:13:23.106Z,2669.00
2023-05-05T08:14:23.141Z,2706.00
2023-05-05T08:15:23.265Z,2757.00
2023-05-05T08:16:23.298Z,2855.00
2023-05-05T08:17:23.382Z,2956.00
2023-05-05T08:18:23.378Z,2998.00
2023-05-05T08:19:29.208Z,2978.00
2023-05-05T08:20:24.396Z,2979.00
2023-05-05T08:21:23.474Z,2983.00
2023-05-05T08:22:23.346Z,2988.00
2023-05-05T08:23:23.330Z,3002.00
2023-05-05T08:24:23.339Z,3058.00
2023-05-05T08:25:23.387Z,3124.00
2023-05-05T08:26:23.469Z,3182.00
2023-05-05T08:27:23.349Z,3153.00
2023-05-05T08:28:23.361Z,3092.00
2023-05-05T08:29:23.844Z,3056.00
2023-05-05T08:30:23.521Z,3020.00
2023-05-05T08:31:23.483Z,3046.00
2023-05-05T08:32:23.610Z,3011.00
2023-05-05T08:33:23.508Z,3038.00
2023-05-05T08:34:23.530Z,3011.00
2023-05-05T08:35:23.757Z,3010.00
2023-05-05T08:36:23.588Z,3018.00
2023-05-05T08:37:23.593Z,3006.00
2023-05-05T08:38:23.550Z,2992.00
2023-05-05T08:39:23.581Z,2965.00
2023-05-05T08:40:23.734Z,2776.00
2023-05-05T08:41:23.598Z,2533.00
2023-05-05T08:42:36.409Z,2442.00
2023-05-05T08:43:24.815Z,2422.00
2023-05-05T08:44:23.899Z,2395.00
2023-05-05T08:45:23.639Z,2389.00
2023-05-05T08:46:23.633Z,2374.00
2023-05-05T08:47:23.893Z,2354.00
2023-05-05T08:48:23.588Z,2346.00
2023-05-05T08:49:23.659Z,2346.00
2023-05-05T08:50:23.594Z,2382.00
2023-05-05T08:51:23.546Z,2383.00
2023-05-05T08:52:23.646Z,2390.00
2023-05-05T08:53:23.570Z,2390.00
2023-05-05T08:54:23.866Z,2421.00
2023-05-05T08:55:23.541Z,2441.00
2023-05-05T08:56:23.509Z,2472.00
2023-05-05T08:57:23.520Z,2496.00
2023-05-05T08:58:23.687Z,2514.00
2023-05-05T08:59:23.522Z,2527.00
2023-05-05T09:00:23.706Z,2554.00
2023-05-05T09:01:23.701Z,2589.00
2023-05-05T09:02:23.779Z,2600.00
2023-05-05T09:03:23.780Z,2621.00
2023-05-05T09:04:23.821Z,2653.00
2023-05-05T09:05:23.947Z,2655.00
2023-05-05T09:06:23.919Z,2691.00
2023-05-05T09:07:23.983Z,2682.00
2023-05-05T09:08:24.038Z,2668.00
2023-05-05T09:09:24.141Z,2641.00
2023-05-05T09:10:24.390Z,2628.00
2023-05-05T09:11:24.285Z,2636.00
2023-05-05T09:12:24.335Z,2654.00
2023-05-05T09:13:24.345Z,2674.00
2023-05-05T09:14:24.576Z,2697.00
2023-05-05T09:15:24.482Z,2714.00
2023-05-05T09:16:24.571Z,2738.00
2023-05-05T09:17:24.631Z,2763.00
2023-05-05T09:18:24.771Z,2767.00
2023-05-05T09:19:24.711Z,2776.00
2023-05-05T09:20:25.350Z,2755.00
2023-05-05T09:21:24.849Z,2753.00
2023-05-05T09:22:24.904Z,2753.00
2023-05-05T09:23:24.951Z,2775.00
2023-05-05T09:24:25.113Z,2780.00
2023-05-05T09:25:25.034Z,2822.00
2023-05-05T09:26:25.085Z,2809.00
2023-05-05T09:27:25.197Z,2819.00
2023-05-05T09:28:25.195Z,2824.00
2023-05-05T09:29:25.257Z,2827.00
2023-05-05T09:30:25.331Z,2831.00
2023-05-05T09:31:25.406Z,2858.00
2023-05-05T09:32:25.442Z,2865.00
2023-05-05T09:33:25.440Z,2867.00
2023-05-05T09:34:25.628Z,2828.00
2023-05-05T09:35:25.642Z,2797.00
2023-05-05T09:36:25.612Z,2825.00
2023-05-05T09:37:26.400Z,2776.00
2023-05-05T09:38:25.674Z,2736.00
2023-05-05T09:39:25.724Z,2734.00
2023-05-05T09:40:25.766Z,2719.00
2023-05-05T09:41:25.794Z,2731.00
2023-05-05T09:42:25.849Z,2719.00
2023-05-05T09:43:25.897Z,2741.00
2023-05-05T09:44:26.423Z,2742.00
2023-05-05T09:45:26.014Z,2739.00
2023-05-05T09:46:26.186Z,2759.00
2023-05-05T09:47:29.915Z,2760.00
2023-05-05T09:48:26.130Z,2762.00
2023-05-05T09:49:26.083Z,2767.00
2023-05-05T09:50:26.064Z,2781.00
2023-05-05T09:51:26.104Z,2803.00
2023-05-05T09:52:26.066Z,2852.00
2023-05-05T09:53:26.061Z,2881.00
2023-05-05T09:54:26.042Z,2883.00
2023-05-05T09:55:26.012Z,2884.00
2023-05-05T09:56:25.993Z,2855.00
2023-05-05T09:57:25.983Z,2813.00
2023-05-05T09:58:26.122Z,2815.00
2023-05-05T09:59:26.025Z,2800.00
2023-05-05T10:00:25.993Z,2781.00
2023-05-05T10:01:25.967Z,2780.00
2023-05-05T10:02:26.109Z,2758.00
2023-05-05T10:03:26.057Z,2712.00
2023-05-05T10:04:26.253Z,2711.00
2023-05-05T10:05:25.969Z,2731.00
2023-05-05T10:06:25.925Z,2701.00
2023-05-05T10:07:25.913Z,2648.00
2023-05-05T10:08:26.013Z,2625.00
2023-05-05T10:09:25.906Z,2605.00
2023-05-05T10:10:27.524Z,2587.00
2023-05-05T10:11:25.935Z,2575.00
2023-05-05T10:12:25.910Z,2530.00
2023-05-05T10:13:25.875Z,2516.00
2023-05-05T10:14:25.902Z,2503.00
2023-05-05T10:15:25.856Z,2507.00
2023-05-05T10:16:27.434Z,2511.00
2023-05-05T10:17:25.911Z,2512.00
2023-05-05T10:18:26.041Z,2516.00
2023-05-05T10:19:26.397Z,2532.00
2023-05-05T10:20:25.841Z,2571.00
2023-05-05T10:21:25.815Z,2619.00
2023-05-05T10:22:25.905Z,2646.00
2023-05-05T10:23:25.972Z,2658.00
2023-05-05T10:24:25.964Z,2659.00
2023-05-05T10:25:26.104Z,2679.00
2023-05-05T10:26:26.069Z,2686.00
2023-05-05T10:27:26.121Z,2689.00
2023-05-05T10:28:26.437Z,2668.00
2023-05-05T10:29:26.295Z,2648.00
2023-05-05T10:30:26.258Z,2631.00
2023-05-05T10:31:26.878Z,2634.00
2023-05-05T10:32:51.218Z,2590.00
2023-05-05T10:33:32.050Z,2592.00
2023-05-05T10:34:26.577Z,2592.00
2023-05-05T10:35:26.343Z,2594.00
2023-05-05T10:36:26.308Z,2575.00
2023-05-05T10:37:26.347Z,2576.00
2023-05-05T10:38:26.926Z,2549.00
2023-05-05T10:39:26.305Z,2532.00
2023-05-05T10:40:26.276Z,2542.00
2023-05-05T10:41:26.297Z,2549.00
2023-05-05T10:42:26.258Z,2529.00
2023-05-05T10:43:26.412Z,2528.00
2023-05-05T10:44:26.398Z,2524.00
2023-05-05T10:45:26.327Z,2491.00
2023-05-05T10:46:26.290Z,2501.00
2023-05-05T10:47:26.285Z,2468.00
2023-05-05T10:48:26.349Z,2478.00
2023-05-05T10:49:26.439Z,2446.00
2023-05-05T10:50:26.946Z,2458.00
2023-05-05T10:51:38.788Z,2449.00
2023-05-05T10:52:27.214Z,2450.00
2023-05-05T10:53:26.198Z,2453.00
2023-05-05T10:54:26.496Z,2453.00
2023-05-05T10:55:26.239Z,2453.00
2023-05-05T10:56:26.189Z,2458.00
2023-05-05T10:57:26.229Z,2452.00
2023-05-05T10:58:26.177Z,2442.00
2023-05-05T10:59:26.275Z,2411.00
2023-05-05T11:00:26.223Z,2414.00
2023-05-05T11:01:26.261Z,2414.00
2023-05-05T11:02:26.322Z,2415.00
2023-05-05T11:03:26.510Z,2424.00
2023-05-05T11:04:26.921Z,2417.00
2023-05-05T11:05:26.465Z,2394.00
2023-05-05T11:06:26.615Z,2382.00
2023-05-05T11:07:26.656Z,2401.00
2023-05-05T11:08:26.641Z,2396.00
2023-05-05T11:09:26.683Z,2371.00
2023-05-05T11:10:26.843Z,2365.00
2023-05-05T11:11:26.798Z,2359.00
2023-05-05T11:12:26.899Z,2372.00
2023-05-05T11:13:27.040Z,2360.00
2023-05-05T11:14:27.001Z,2359.00
2023-05-05T11:15:27.590Z,2348.00
2023-05-05T11:16:27.173Z,2342.00
2023-05-05T11:17:27.231Z,2343.00
2023-05-05T11:18:27.289Z,2343.00
2023-05-05T11:19:27.297Z,2344.00
2023-05-05T11:20:27.481Z,2326.00
2023-05-05T11:21:27.409Z,2324.00
2023-05-05T11:22:27.480Z,2313.00
2023-05-05T11:23:27.936Z,2336.00
2023-05-05T11:24:27.605Z,2304.00
2023-05-05T11:25:27.662Z,2288.00
2023-05-05T11:26:27.732Z,2282.00
2023-05-05T11:27:27.792Z,2282.00
2023-05-05T11:28:27.860Z,2292.00
2023-05-05T11:29:27.925Z,2301.00
2023-05-05T11:30:28.024Z,2292.00
2023-05-05T11:31:28.084Z,2271.00
2023-05-05T11:32:29.029Z,2258.00
2023-05-05T11:33:28.294Z,2247.00
2023-05-05T11:34:28.261Z,2268.00
2023-05-05T11:35:28.452Z,2246.00
2023-05-05T11:36:28.375Z,2253.00
2023-05-05T11:37:28.467Z,2255.00
2023-05-05T11:38:28.482Z,2253.00
2023-05-05T11:39:28.523Z,2254.00
2023-05-05T11:40:28.555Z,2245.00
2023-05-05T11:41:28.613Z,2239.00
2023-05-05T11:42:28.663Z,2244.00
2023-05-05T11:43:28.763Z,2257.00
2023-05-05T11:44:28.779Z,2256.00
2023-05-05T11:45:28.857Z,2245.00
2023-05-05T11:46:28.968Z,2251.00
2023-05-05T11:47:28.964Z,2241.00
2023-05-05T11:48:29.044Z,2246.00
2023-05-05T11:49:29.054Z,2230.00
2023-05-05T11:50:29.087Z,2214.00
2023-05-05T11:51:29.112Z,2227.00
2023-05-05T11:52:29.219Z,2222.00
2023-05-05T11:53:29.276Z,2231.00
2023-05-05T11:54:29.483Z,2209.00
2023-05-05T11:55:29.395Z,2200.00
2023-05-05T11:56:29.434Z,2201.00
2023-05-05T11:57:29.480Z,2203.00
2023-05-05T11:58:29.595Z,2177.00
2023-05-05T11:59:29.569Z,2171.00
2023-05-05T12:00:29.601Z,2186.00
2023-05-05T12:01:29.683Z,2175.00
2023-05-05T12:02:29.823Z,2182.00
2023-05-05T12:03:29.916Z,2182.00
2023-05-05T12:04:29.836Z,2173.00
2023-05-05T12:05:29.841Z,2171.00